ENT7104 GVBA-GVAC
Flight info
| Callsign | ENT7104 |
|---|---|
| Flight time | 0h 10m |
| Altitude | 8000 |
| Route | DCT GUSAN DCT |
| Aircraft | B38M/M-SDE1FGHILORVWXY/HB1 |
Departure
| Time | 2026-05-01 13:17 |
|---|---|
| Airport | Aristides Pereira International Airport (GVBA) |
Arrival
| Time | 2026-05-01 13:27 |
|---|---|
| Airport | Amílcar Cabral International Airport (GVAC) |
| Time | Latitude | Longitude | Altitude | Speed | Heading |
|---|---|---|---|---|---|
| 2026-05-01 12:54 | 16.13519 | -22.89117 | 60 ft | 0 kts | 287° |
| 2026-05-01 13:00 | 16.13515 | -22.89103 | 61 ft | 2 kts | 286° |
| 2026-05-01 13:00 | 16.13508 | -22.89081 | 55 ft | 2 kts | 287° |
| 2026-05-01 13:01 | 16.13501 | -22.89053 | 58 ft | 2 kts | 276° |
| 2026-05-01 13:01 | 16.13503 | -22.89036 | 60 ft | 2 kts | 224° |
| 2026-05-01 13:01 | 16.13525 | -22.89028 | 54 ft | 0 kts | 194° |
| 2026-05-01 13:14 | 16.13497 | -22.89034 | 63 ft | 7 kts | 183° |
| 2026-05-01 13:14 | 16.13468 | -22.89004 | 59 ft | 14 kts | 112° |
| 2026-05-01 13:14 | 16.13408 | -22.88949 | 61 ft | 11 kts | 192° |
| 2026-05-01 13:15 | 16.13291 | -22.88995 | 56 ft | 24 kts | 198° |
| 2026-05-01 13:15 | 16.13090 | -22.89058 | 64 ft | 35 kts | 196° |
| 2026-05-01 13:15 | 16.12921 | -22.89141 | 67 ft | 19 kts | 229° |
| 2026-05-01 13:15 | 16.12842 | -22.89159 | 66 ft | 7 kts | 117° |
| 2026-05-01 13:16 | 16.12885 | -22.89123 | 65 ft | 27 kts | 17° |
| 2026-05-01 13:16 | 16.13400 | -22.88965 | 61 ft | 123 kts | 16° |
| 2026-05-01 13:16 | 16.14385 | -22.88666 | 638 ft | 159 kts | 16° |
| 2026-05-01 13:17 | 16.17822 | -22.89324 | 3833 ft | 196 kts | 351° |
| 2026-05-01 13:17 | 16.19260 | -22.89603 | 4752 ft | 223 kts | 349° |
| 2026-05-01 13:18 | 16.22568 | -22.90262 | 6769 ft | 264 kts | 349° |
| 2026-05-01 13:18 | 16.24440 | -22.90636 | 7617 ft | 282 kts | 349° |
| 2026-05-01 13:18 | 16.26382 | -22.91025 | 7660 ft | 285 kts | 348° |
| 2026-05-01 13:18 | 16.28316 | -22.91413 | 7528 ft | 279 kts | 348° |
| 2026-05-01 13:19 | 16.30224 | -22.91795 | 7257 ft | 281 kts | 348° |
| 2026-05-01 13:19 | 16.32154 | -22.92183 | 6844 ft | 283 kts | 348° |
| 2026-05-01 13:19 | 16.36020 | -22.92958 | 6036 ft | 282 kts | 348° |
| 2026-05-01 13:20 | 16.37917 | -22.93339 | 5647 ft | 280 kts | 349° |
| 2026-05-01 13:20 | 16.39817 | -22.93720 | 5266 ft | 277 kts | 349° |
| 2026-05-01 13:20 | 16.41677 | -22.94169 | 5017 ft | 269 kts | 347° |
| 2026-05-01 13:21 | 16.45240 | -22.94610 | 4696 ft | 249 kts | 357° |
| 2026-05-01 13:21 | 16.46939 | -22.94667 | 4512 ft | 242 kts | 359° |
| 2026-05-01 13:21 | 16.48644 | -22.94692 | 4351 ft | 248 kts | 359° |
| 2026-05-01 13:21 | 16.50373 | -22.94709 | 4176 ft | 248 kts | 360° |
| 2026-05-01 13:22 | 16.52100 | -22.94724 | 3932 ft | 248 kts | 360° |
| 2026-05-01 13:22 | 16.53821 | -22.94739 | 3667 ft | 244 kts | 360° |
| 2026-05-01 13:22 | 16.55482 | -22.94752 | 3389 ft | 239 kts | 1° |
| 2026-05-01 13:22 | 16.57135 | -22.94765 | 3084 ft | 235 kts | 1° |
| 2026-05-01 13:23 | 16.58750 | -22.94778 | 2810 ft | 228 kts | 1° |
| 2026-05-01 13:23 | 16.60295 | -22.94790 | 2518 ft | 216 kts | 2° |
| 2026-05-01 13:23 | 16.61762 | -22.94801 | 2238 ft | 205 kts | 2° |
| 2026-05-01 13:23 | 16.63166 | -22.94812 | 1972 ft | 198 kts | 2° |
| 2026-05-01 13:24 | 16.64489 | -22.94822 | 1715 ft | 180 kts | 1° |
| 2026-05-01 13:24 | 16.65651 | -22.94832 | 1508 ft | 153 kts | 2° |
| 2026-05-01 13:24 | 16.66616 | -22.94840 | 1318 ft | 128 kts | 2° |
| 2026-05-01 13:25 | 16.68321 | -22.94852 | 994 ft | 122 kts | 4° |
| 2026-05-01 13:25 | 16.69164 | -22.94858 | 828 ft | 120 kts | 4° |
| 2026-05-01 13:25 | 16.69996 | -22.94863 | 715 ft | 119 kts | 2° |
| 2026-05-01 13:25 | 16.70805 | -22.94872 | 522 ft | 114 kts | 1° |
| 2026-05-01 13:26 | 16.71598 | -22.94878 | 393 ft | 114 kts | 3° |
| 2026-05-01 13:26 | 16.72404 | -22.94896 | 221 ft | 116 kts | 5° |
| 2026-05-01 13:26 | 16.73159 | -22.94890 | 154 ft | 93 kts | 359° |
| 2026-05-01 13:26 | 16.73612 | -22.94896 | 153 ft | 52 kts | 359° |
| 2026-05-01 13:27 | 16.73978 | -22.94898 | 153 ft | 52 kts | 358° |
| 2026-05-01 13:27 | 16.74207 | -22.94897 | 152 ft | 18 kts | 17° |
| 2026-05-01 13:27 | 16.74310 | -22.94718 | 153 ft | 7 kts | 94° |
| 2026-05-01 13:28 | 16.74239 | -22.94700 | 153 ft | 17 kts | 179° |
| 2026-05-01 13:28 | 16.74085 | -22.94698 | 153 ft | 27 kts | 179° |
| 2026-05-01 13:29 | 16.73672 | -22.94696 | 153 ft | 25 kts | 176° |
| 2026-05-01 13:29 | 16.73482 | -22.94596 | 153 ft | 17 kts | 179° |
| 2026-05-01 13:30 | 16.73236 | -22.94506 | 153 ft | 0 kts | 89° |